Time;durP1;ratioP1;P1;durP2;ratioP2;P2;SDS_P1;SDS_P2;PMS_P1;PMS_P2;Temp;Humidity;BMP_temperature;BMP_pressure;BME280_temperature;BME280_humidity;BME280_pressure;Samples;Min_cycle;Max_cycle;Signal;HPM_P1;HPM_P2
2024/02/08 00:01:30;;;;;;;3.03;2.30;;;8.60;99.90;;;;;;5022128;28;20064;-91
2024/02/08 00:03:56;;;;;;;7.40;3.38;;;8.60;99.90;;;;;;5039987;28;20499;-92
2024/02/08 00:06:22;;;;;;;5.50;2.33;;;8.70;99.90;;;;;;5024321;28;20025;-90
2024/02/08 00:08:53;;;;;;;5.40;2.00;;;8.70;99.90;;;;;;5042320;28;20025;-92
2024/02/08 00:11:19;;;;;;;7.18;3.58;;;8.60;99.90;;;;;;5043202;28;20549;-91
2024/02/08 00:13:45;;;;;;;5.03;2.10;;;8.60;99.90;;;;;;5042601;28;20028;-92
2024/02/08 00:16:11;;;;;;;3.85;2.53;;;8.60;99.90;;;;;;5040251;28;20056;-92
2024/02/08 00:18:37;;;;;;;5.00;2.67;;;8.70;99.90;;;;;;5040084;28;20036;-91
2024/02/08 00:21:03;;;;;;;6.93;2.75;;;8.70;99.90;;;;;;5040019;28;20021;-91
2024/02/08 00:23:29;;;;;;;4.95;2.13;;;8.70;99.90;;;;;;5040028;28;20068;-92
2024/02/08 00:25:55;;;;;;;5.97;3.17;;;8.70;99.90;;;;;;5040948;28;20026;-91
2024/02/08 00:28:21;;;;;;;4.85;2.22;;;8.70;99.90;;;;;;5041011;28;20025;-91
2024/02/08 00:30:47;;;;;;;4.22;2.03;;;8.70;99.90;;;;;;5044897;28;20040;-92
2024/02/08 00:33:13;;;;;;;4.47;1.50;;;8.80;99.90;;;;;;5045455;28;20029;-91
2024/02/08 00:35:39;;;;;;;4.15;1.63;;;8.80;99.90;;;;;;5028384;28;20037;-92
2024/02/08 00:38:04;;;;;;;4.55;2.15;;;8.80;99.90;;;;;;5042995;28;20029;-93
2024/02/08 00:40:30;;;;;;;5.55;2.35;;;8.80;99.90;;;;;;5039158;28;20087;-90
2024/02/08 00:42:56;;;;;;;3.38;1.65;;;8.80;99.90;;;;;;5040053;28;20029;-92
2024/02/08 00:45:24;;;;;;;5.38;3.60;;;8.80;99.90;;;;;;5039795;28;20041;-91
2024/02/08 00:47:51;;;;;;;6.78;2.33;;;8.80;99.90;;;;;;5040337;28;20155;-90
2024/02/08 00:50:17;;;;;;;5.05;2.15;;;8.80;99.90;;;;;;5039103;28;20025;-92
2024/02/08 00:52:43;;;;;;;3.40;2.10;;;8.80;99.90;;;;;;5040031;28;20021;-92
2024/02/08 00:55:09;;;;;;;7.05;2.28;;;8.80;99.90;;;;;;5021387;28;20033;-91
2024/02/08 00:57:35;;;;;;;3.50;1.95;;;8.80;99.90;;;;;;5040170;28;20034;-93
2024/02/08 01:00:01;;;;;;;3.78;2.83;;;8.90;99.90;;;;;;5039285;28;20028;-92
2024/02/08 01:02:28;;;;;;;3.65;1.95;;;8.90;99.90;;;;;;5039277;28;20109;-93
2024/02/08 01:04:58;;;;;;;2.47;1.48;;;8.90;99.90;;;;;;5040728;28;20021;-91
2024/02/08 01:07:24;;;;;;;6.20;2.72;;;8.90;99.90;;;;;;5039141;28;20037;-93
2024/02/08 01:09:50;;;;;;;3.55;1.77;;;8.90;99.90;;;;;;5038629;28;20545;-91
2024/02/08 01:12:18;;;;;;;3.30;2.25;;;8.90;99.90;;;;;;5022041;28;20108;-91
2024/02/08 01:14:44;;;;;;;4.80;1.83;;;8.90;99.90;;;;;;5045877;28;20017;-91
2024/02/08 01:17:10;;;;;;;3.60;1.83;;;9.00;99.90;;;;;;5037263;28;20024;-92
2024/02/08 01:19:36;;;;;;;4.05;2.58;;;9.00;99.90;;;;;;5039071;28;20082;-94
2024/02/08 01:22:03;;;;;;;2.90;1.35;;;9.00;99.90;;;;;;5038471;28;20031;-92
2024/02/08 01:24:28;;;;;;;5.82;2.53;;;9.00;99.90;;;;;;5038615;28;20053;-90
2024/02/08 01:26:54;;;;;;;4.93;2.05;;;9.00;99.90;;;;;;5021526;28;20025;-92
2024/02/08 01:29:24;;;;;;;4.85;1.80;;;9.00;99.90;;;;;;5039154;28;20021;-91
2024/02/08 01:31:50;;;;;;;4.43;1.98;;;9.10;99.90;;;;;;5038865;28;20025;-90
2024/02/08 01:34:15;;;;;;;5.93;1.67;;;9.00;99.90;;;;;;5038455;28;20028;-90
2024/02/08 01:36:41;;;;;;;2.67;1.40;;;9.00;99.90;;;;;;5038213;28;20018;-90
2024/02/08 01:39:12;;;;;;;4.15;2.35;;;9.10;99.90;;;;;;5036081;28;20029;-92
2024/02/08 01:41:44;;;;;;;3.80;1.75;;;9.10;99.90;;;;;;5037861;28;20097;-92
2024/02/08 01:44:13;;;;;;;3.83;1.63;;;9.10;99.90;;;;;;5020338;28;20026;-92
2024/02/08 01:46:39;;;;;;;4.15;2.03;;;9.10;99.90;;;;;;5036288;28;20060;-90
2024/02/08 01:49:07;;;;;;;3.72;2.22;;;9.10;99.90;;;;;;5037688;28;20300;-93
2024/02/08 01:51:35;;;;;;;3.28;1.55;;;9.10;99.90;;;;;;5039555;28;20104;-88
2024/02/08 01:54:02;;;;;;;3.70;2.35;;;9.20;99.90;;;;;;5041722;28;20018;-92
2024/02/08 01:56:31;;;;;;;4.32;2.17;;;9.20;99.90;;;;;;5048623;28;20068;-90
2024/02/08 01:59:00;;;;;;;3.30;1.42;;;9.20;99.90;;;;;;5049236;28;20083;-92
2024/02/08 02:01:26;;;;;;;5.00;1.63;;;9.20;99.90;;;;;;5048503;28;20082;-89
2024/02/08 02:03:51;;;;;;;2.63;1.27;;;9.20;99.90;;;;;;5049061;28;20022;-92
2024/02/08 02:06:17;;;;;;;3.55;1.73;;;9.20;99.90;;;;;;5046429;28;20511;-91
2024/02/08 02:08:53;;;;;;;3.58;1.67;;;9.20;99.90;;;;;;5051062;28;20261;-91
2024/02/08 02:11:35;;;;;;;4.20;1.40;;;9.20;99.90;;;;;;5033680;28;20021;-91
2024/02/08 02:14:05;;;;;;;3.40;1.55;;;9.20;99.90;;;;;;5050575;28;20085;-91
2024/02/08 02:16:31;;;;;;;2.60;1.17;;;9.20;99.90;;;;;;5028273;28;20040;-91
2024/02/08 02:18:57;;;;;;;4.43;1.67;;;9.20;99.90;;;;;;5040015;28;20045;-92
2024/02/08 02:21:23;;;;;;;3.47;1.58;;;9.30;99.90;;;;;;5037932;28;20520;-91
2024/02/08 02:23:52;;;;;;;5.03;2.30;;;9.30;99.90;;;;;;5039174;28;20028;-90
2024/02/08 02:26:21;;;;;;;3.58;1.40;;;9.30;99.90;;;;;;5039580;28;20045;-91
2024/02/08 02:28:47;;;;;;;2.42;1.67;;;9.30;99.90;;;;;;5038194;28;20052;-89
2024/02/08 02:31:15;;;;;;;2.67;1.38;;;9.30;99.90;;;;;;5038150;28;20017;-91
2024/02/08 02:33:41;;;;;;;1.77;1.10;;;9.40;99.90;;;;;;5039260;28;20434;-91
2024/02/08 02:36:07;;;;;;;2.38;1.50;;;9.40;99.90;;;;;;5037994;28;20024;-91
2024/02/08 02:38:37;;;;;;;2.15;1.65;;;9.40;99.90;;;;;;5039080;28;20439;-91
2024/02/08 02:41:06;;;;;;;3.05;1.38;;;9.40;99.90;;;;;;5037365;28;20076;-92
2024/02/08 02:43:36;;;;;;;3.25;1.70;;;9.40;99.90;;;;;;5022378;28;20022;-91
2024/02/08 02:46:02;;;;;;;3.05;1.70;;;9.40;99.90;;;;;;5037917;28;20076;-91
2024/02/08 02:48:28;;;;;;;2.33;1.13;;;9.30;99.90;;;;;;5036776;28;20510;-92
2024/02/08 02:50:53;;;;;;;2.65;1.60;;;9.30;99.90;;;;;;5042229;28;20022;-91
2024/02/08 02:53:19;;;;;;;3.17;1.20;;;9.30;99.90;;;;;;5048777;28;20029;-92
2024/02/08 02:55:45;;;;;;;1.98;1.17;;;9.30;99.90;;;;;;5049449;28;20111;-91
2024/02/08 02:58:12;;;;;;;3.15;2.40;;;9.30;99.90;;;;;;5045557;28;20220;-90
2024/02/08 03:00:38;;;;;;;3.40;1.92;;;9.30;99.90;;;;;;5041605;28;20022;-92
2024/02/08 03:03:12;;;;;;;2.70;1.98;;;9.40;99.90;;;;;;5040648;28;20109;-90
2024/02/08 03:05:45;;;;;;;2.63;1.23;;;9.40;99.90;;;;;;5042291;28;20025;-89
2024/02/08 03:08:11;;;;;;;3.22;1.45;;;9.40;99.90;;;;;;5041801;28;20032;-92
2024/02/08 03:10:37;;;;;;;2.17;1.80;;;9.50;99.90;;;;;;5041131;28;20021;-91
2024/02/08 03:13:03;;;;;;;3.17;1.15;;;9.50;99.90;;;;;;5041878;28;20025;-92
2024/02/08 03:15:29;;;;;;;1.98;1.23;;;9.50;99.90;;;;;;5041661;28;20029;-91
2024/02/08 03:17:55;;;;;;;3.70;1.48;;;9.40;99.90;;;;;;5041627;28;20032;-91
2024/02/08 03:20:24;;;;;;;2.42;1.50;;;9.40;99.90;;;;;;5023800;28;20061;-95
2024/02/08 03:22:53;;;;;;;2.40;1.20;;;9.40;99.90;;;;;;5023976;28;20030;-91
2024/02/08 03:25:21;;;;;;;3.78;1.17;;;9.30;99.90;;;;;;5041697;28;20120;-91
2024/02/08 03:27:51;;;;;;;1.70;1.00;;;9.30;99.90;;;;;;5041110;28;20022;-92
2024/02/08 03:30:22;;;;;;;4.82;1.40;;;9.30;99.90;;;;;;5041772;28;20487;-92
2024/02/08 03:32:52;;;;;;;2.15;1.08;;;9.30;99.90;;;;;;5042404;28;20028;-92
2024/02/08 03:35:27;;;;;;;2.80;1.33;;;9.20;99.90;;;;;;5041834;28;20506;-88
2024/02/08 03:38:00;;;;;;;3.95;1.40;;;9.20;99.90;;;;;;5040451;28;20028;-91
2024/02/08 03:40:29;;;;;;;6.47;1.65;;;9.20;99.90;;;;;;5039187;28;20022;-90
2024/02/08 03:42:55;;;;;;;2.78;0.88;;;9.20;99.90;;;;;;5046831;28;20022;-93
2024/02/08 03:45:23;;;;;;;2.63;1.80;;;9.20;99.90;;;;;;5028686;28;20036;-89
2024/02/08 03:47:52;;;;;;;3.38;1.52;;;9.20;99.90;;;;;;5048342;28;20075;-92
2024/02/08 03:50:18;;;;;;;3.33;3.08;;;9.20;99.90;;;;;;5046978;28;20317;-92
2024/02/08 03:52:45;;;;;;;2.53;1.58;;;9.20;99.90;;;;;;5027804;28;20022;-93
2024/02/08 03:55:13;;;;;;;2.45;1.73;;;9.20;99.90;;;;;;5042951;28;20080;-91
2024/02/08 03:57:39;;;;;;;3.30;1.23;;;9.20;99.90;;;;;;5041512;28;20026;-90
2024/02/08 04:00:13;;;;;;;3.20;1.85;;;9.20;99.90;;;;;;5023744;28;20035;-92
2024/02/08 04:02:43;;;;;;;3.75;1.60;;;9.10;99.90;;;;;;5026645;28;20034;-91
2024/02/08 04:05:19;;;;;;;3.10;1.58;;;9.10;99.90;;;;;;5041628;28;20033;-91
2024/02/08 04:07:56;;;;;;;3.85;2.10;;;9.10;99.90;;;;;;5042117;28;20068;-91
2024/02/08 04:53:30;;;;;;;1.60;0.90;;;9.10;99.90;;;;;;5016945;28;20025;-90
2024/02/08 04:54:42;;;;;;;1.40;0.80;;;9.30;99.90;;;;;;5037692;28;20040;-92
2024/02/08 04:57:11;;;;;;;3.75;0.85;;;9.30;99.90;;;;;;5038288;28;20029;-93
2024/02/08 04:59:41;;;;;;;2.67;1.38;;;9.30;99.90;;;;;;5045408;28;20026;-91
2024/02/08 05:02:07;;;;;;;2.72;1.50;;;9.30;99.90;;;;;;5039698;28;20018;-92
2024/02/08 05:04:36;;;;;;;2.75;2.55;;;9.30;99.90;;;;;;5039298;28;20585;-93
2024/02/08 05:07:06;;;;;;;3.05;2.05;;;9.30;99.90;;;;;;5047714;28;20021;-92
2024/02/08 05:09:32;;;;;;;1.85;1.15;;;9.30;99.90;;;;;;5048810;28;20017;-92
2024/02/08 05:12:05;;;;;;;2.40;1.23;;;9.20;99.90;;;;;;5040142;28;20014;-92
2024/02/08 05:14:34;;;;;;;2.05;1.23;;;9.20;99.90;;;;;;5017235;28;20017;-92
2024/02/08 05:17:00;;;;;;;2.38;1.55;;;9.20;99.90;;;;;;5021722;28;20511;-93
2024/02/08 05:19:26;;;;;;;2.50;1.75;;;9.20;99.90;;;;;;5038376;28;20029;-91
2024/02/08 05:21:54;;;;;;;6.50;1.77;;;9.20;99.90;;;;;;5050725;28;20028;-92
2024/02/08 05:24:20;;;;;;;3.42;1.48;;;9.20;99.90;;;;;;5047057;28;20475;-91
2024/02/08 05:26:46;;;;;;;2.80;1.60;;;9.20;99.90;;;;;;5042617;28;20029;-90
2024/02/08 05:29:19;;;;;;;2.90;1.75;;;9.30;99.90;;;;;;5045089;28;20369;-93
2024/02/08 05:31:47;;;;;;;4.45;1.52;;;9.20;99.90;;;;;;5026855;28;20136;-91
2024/02/08 05:34:13;;;;;;;;;;;9.20;99.90;;;;;;5022326;28;20025;-92
2024/02/08 05:36:39;;;;;;;2.65;1.85;;;9.30;99.90;;;;;;5042202;28;19905;-91
2024/02/08 05:39:08;;;;;;;6.25;1.95;;;9.20;99.90;;;;;;5024399;28;20024;-93
2024/02/08 05:41:33;;;;;;;2.92;1.67;;;9.30;99.90;;;;;;5023757;28;20033;-92
2024/02/08 05:44:06;;;;;;;3.63;1.70;;;9.20;99.90;;;;;;5041256;28;20056;-92
2024/02/08 05:46:37;;;;;;;2.22;1.48;;;9.20;99.90;;;;;;5042323;28;20029;-92
2024/02/08 05:49:25;;;;;;;2.60;1.92;;;9.30;99.90;;;;;;5024517;28;20033;-93
2024/02/08 05:51:54;;;;;;;2.55;1.13;;;9.30;99.90;;;;;;5040902;28;20029;-93
2024/02/08 05:54:20;;;;;;;2.88;2.60;;;9.30;99.90;;;;;;5041745;28;20025;-92
2024/02/08 05:56:47;;;;;;;2.38;1.42;;;9.30;99.90;;;;;;5041487;28;20021;-91
2024/02/08 05:59:17;;;;;;;4.47;1.70;;;9.30;99.90;;;;;;5021120;28;20025;-92
2024/02/08 06:01:54;;;;;;;3.30;1.40;;;9.30;99.90;;;;;;5024270;28;20117;-92
2024/02/08 06:04:34;;;;;;;2.88;1.25;;;9.30;99.90;;;;;;5041199;28;20021;-92
2024/02/08 06:07:05;;;;;;;2.47;1.17;;;9.30;99.90;;;;;;5040771;28;20018;-90
2024/02/08 06:09:47;;;;;;;2.53;0.93;;;9.30;99.90;;;;;;5031054;28;20018;-94
2024/02/08 06:12:42;;;;;;;2.65;1.42;;;9.20;99.90;;;;;;5040907;28;20392;-93
2024/02/08 06:15:24;;;;;;;3.95;1.85;;;9.30;99.90;;;;;;5038381;28;20384;-93
2024/02/08 06:18:05;;;;;;;1.98;1.30;;;9.20;99.90;;;;;;5043161;28;20403;-92
2024/02/08 06:20:40;;;;;;;2.90;2.08;;;9.20;99.90;;;;;;5040875;28;20105;-91
2024/02/08 06:23:26;;;;;;;2.67;1.15;;;9.30;99.90;;;;;;5027813;28;20486;-92
2024/02/08 06:28:46;;;;;;;3.17;1.67;;;9.30;99.90;;;;;;5045832;28;20025;-91
2024/02/08 06:31:18;;;;;;;2.88;2.03;;;9.20;99.90;;;;;;5031530;28;20021;-91
2024/02/08 06:36:40;;;;;;;4.32;1.45;;;9.30;99.90;;;;;;5030667;28;20099;-92
2024/02/08 06:39:23;;;;;;;2.70;1.30;;;9.30;99.90;;;;;;5044558;28;20022;-92
2024/02/08 06:41:55;;;;;;;2.58;1.63;;;9.40;99.90;;;;;;5037094;28;20037;-93
2024/02/08 06:47:29;;;;;;;3.25;2.28;;;9.40;99.90;;;;;;5035425;28;20033;-92
2024/02/08 07:39:36;;;;;;;4.05;1.45;;;9.50;99.90;;;;;;5028746;28;21442;-92
2024/02/08 07:42:12;;;;;;;3.38;1.52;;;9.50;99.90;;;;;;5033065;28;20101;-90
2024/02/08 07:44:39;;;;;;;2.33;1.25;;;9.50;99.90;;;;;;5014231;28;20037;-92
2024/02/08 07:47:12;;;;;;;3.58;1.60;;;9.50;99.90;;;;;;5019382;28;20112;-91
2024/02/08 07:49:44;;;;;;;2.45;1.67;;;9.50;99.90;;;;;;5022840;28;20053;-93
2024/02/08 07:52:19;;;;;;;2.22;1.40;;;9.60;99.90;;;;;;5029455;28;20032;-93
2024/02/08 07:54:56;;;;;;;4.20;1.42;;;9.60;99.90;;;;;;5025221;28;20093;-91
2024/02/08 07:57:26;;;;;;;2.17;1.42;;;9.60;99.90;;;;;;5021102;28;20064;-93
2024/02/08 07:59:59;;;;;;;1.88;1.10;;;9.60;99.90;;;;;;5032986;28;20401;-91
2024/02/08 08:02:29;;;;;;;1.83;1.45;;;9.70;99.90;;;;;;5027924;28;20031;-92
2024/02/08 08:04:55;;;;;;;4.35;1.80;;;9.70;99.90;;;;;;5033828;28;20048;-93
2024/02/08 08:07:24;;;;;;;1.85;1.33;;;9.70;99.90;;;;;;5023567;28;20041;-91
2024/02/08 08:10:25;;;;;;;3.10;1.58;;;9.80;99.90;;;;;;5021991;28;20037;-90
2024/02/08 08:12:39;;;;;;;4.18;1.88;;;9.80;99.90;;;;;;5028279;28;20362;-92
2024/02/08 08:17:40;;;;;;;1.98;1.35;;;10.00;99.90;;;;;;5032079;28;20104;-92
2024/02/08 08:20:15;;;;;;;1.90;1.05;;;10.10;99.90;;;;;;5024915;28;20129;-91
2024/02/08 08:22:54;;;;;;;2.17;1.10;;;10.10;99.90;;;;;;5026983;28;20029;-91
2024/02/08 08:25:30;;;;;;;1.80;0.77;;;10.20;99.90;;;;;;5027164;28;20044;-91
2024/02/08 08:28:29;;;;;;;3.65;1.00;;;10.10;99.90;;;;;;5005273;28;20033;-92
2024/02/08 08:31:00;;;;;;;;;;;10.10;99.90;;;;;;5022464;28;20091;-91
2024/02/08 08:36:28;;;;;;;1.98;0.88;;;10.20;99.90;;;;;;5023811;28;20056;-91
2024/02/08 08:39:29;;;;;;;3.85;0.75;;;10.10;99.90;;;;;;5032521;28;20156;-92
2024/02/08 08:41:46;;;;;;;1.88;1.10;;;10.10;99.90;;;;;;5032043;28;20554;-93
2024/02/08 08:44:15;;;;;;;2.38;0.80;;;10.10;99.90;;;;;;5026280;28;20093;-92
2024/02/08 08:46:42;;;;;;;4.78;1.10;;;10.10;99.90;;;;;;5022601;28;20049;-92
2024/02/08 08:49:14;;;;;;;3.17;1.42;;;10.10;99.90;;;;;;5027362;28;20110;-93
2024/02/08 08:51:42;;;;;;;1.55;1.02;;;10.20;99.90;;;;;;5030766;28;20018;-93
2024/02/08 08:54:19;;;;;;;1.65;0.90;;;10.20;99.90;;;;;;5028004;28;20037;-92
2024/02/08 08:56:45;;;;;;;1.35;1.10;;;10.20;99.90;;;;;;5032077;28;20601;-93
2024/02/08 08:59:11;;;;;;;1.90;0.85;;;10.30;99.90;;;;;;5024619;28;20040;-92
2024/02/08 09:01:40;;;;;;;1.35;1.10;;;10.20;99.90;;;;;;5023844;28;20052;-92
2024/02/08 09:06:49;;;;;;;2.33;1.75;;;10.30;99.90;;;;;;5022591;28;20071;-92
2024/02/08 09:09:27;;;;;;;1.42;1.33;;;10.30;99.90;;;;;;5025170;28;20563;-93
2024/02/08 09:11:57;;;;;;;2.00;1.33;;;10.40;99.90;;;;;;5032600;28;20408;-93
2024/02/08 09:14:30;;;;;;;2.47;1.40;;;10.40;99.90;;;;;;5016978;28;20038;-92
2024/02/08 09:16:59;;;;;;;1.55;0.95;;;10.30;99.90;;;;;;5023383;28;20391;-93
2024/02/08 09:19:29;;;;;;;2.40;0.90;;;10.30;99.90;;;;;;5021506;28;20974;-90
2024/02/08 09:22:03;;;;;;;2.42;1.10;;;10.30;99.90;;;;;;5024588;28;20033;-91
2024/02/08 09:24:29;;;;;;;2.47;1.13;;;10.30;99.90;;;;;;5027207;28;20029;-92
2024/02/08 09:27:15;;;;;;;3.22;1.65;;;10.30;99.90;;;;;;5030075;28;20029;-92
2024/02/08 09:29:50;;;;;;;1.70;1.58;;;10.30;99.90;;;;;;5030638;28;20040;-92
2024/02/08 09:35:01;;;;;;;5.07;2.00;;;10.30;99.90;;;;;;5025437;28;20562;-93
2024/02/08 09:37:29;;;;;;;2.00;1.23;;;10.30;99.90;;;;;;5007056;28;20883;-92
2024/02/08 09:42:54;;;;;;;2.83;1.10;;;10.40;99.90;;;;;;5026583;28;20037;-94
2024/02/08 09:45:41;;;;;;;1.73;1.08;;;10.40;99.90;;;;;;5019288;28;20064;-89
2024/02/08 09:48:25;;;;;;;1.75;0.95;;;10.40;99.90;;;;;;5031658;28;20526;-91
2024/02/08 09:50:59;;;;;;;1.63;1.13;;;10.40;99.90;;;;;;5011673;28;20596;-92
2024/02/08 09:53:27;;;;;;;3.00;1.15;;;10.40;99.90;;;;;;5017749;28;20034;-92
2024/02/08 09:56:15;;;;;;;2.25;1.30;;;10.40;99.90;;;;;;5018616;28;20030;-94
2024/02/08 09:58:55;;;;;;;3.08;1.45;;;10.30;99.90;;;;;;5001794;28;20041;-91
2024/02/08 10:01:21;;;;;;;1.42;1.00;;;10.40;99.90;;;;;;5025946;28;20025;-93
2024/02/08 10:04:07;;;;;;;1.85;1.60;;;10.30;99.90;;;;;;5007667;28;20376;-91
2024/02/08 10:11:59;;;;;;;1.92;1.52;;;10.40;99.90;;;;;;5036734;28;20091;-91
2024/02/08 10:14:26;;;;;;;2.35;1.23;;;10.40;99.90;;;;;;5011538;28;20022;-92
2024/02/08 10:17:01;;;;;;;1.45;0.80;;;10.40;99.90;;;;;;5004823;28;20083;-93
2024/02/08 10:22:02;;;;;;;3.38;1.25;;;10.40;99.90;;;;;;5024924;28;20063;-92
2024/02/08 10:27:20;;;;;;;2.10;0.80;;;10.50;99.90;;;;;;5020002;28;20095;-91
2024/02/08 10:29:56;;;;;;;1.13;0.82;;;10.50;99.90;;;;;;5038657;28;20029;-91
2024/02/08 10:32:26;;;;;;;2.10;0.63;;;10.40;99.90;;;;;;5000138;28;20057;-92
2024/02/08 10:34:52;;;;;;;1.52;0.90;;;10.50;99.90;;;;;;5004520;28;20075;-90
2024/02/08 10:40:28;;;;;;;1.30;0.98;;;10.50;99.90;;;;;;5022561;28;20044;-92
2024/02/08 10:42:53;;;;;;;2.67;1.27;;;10.60;99.90;;;;;;5026108;28;20036;-91
2024/02/08 10:45:23;;;;;;;3.70;0.88;;;10.50;99.90;;;;;;5005394;28;20409;-93
2024/02/08 10:47:55;;;;;;;1.15;0.80;;;10.50;99.90;;;;;;5029755;28;20026;-92
2024/02/08 10:50:27;;;;;;;1.08;0.98;;;10.60;99.90;;;;;;4999562;28;20025;-90
2024/02/08 10:53:00;;;;;;;2.08;0.88;;;10.60;99.90;;;;;;5021194;28;20024;-91
2024/02/08 10:55:39;;;;;;;2.15;1.25;;;10.70;99.90;;;;;;5009202;28;20028;-90
2024/02/08 11:03:33;;;;;;;2.08;1.40;;;10.80;99.90;;;;;;5025478;28;20566;-91
2024/02/08 11:06:00;;;;;;;3.60;0.82;;;10.80;99.90;;;;;;5025158;28;20053;-95
2024/02/08 11:08:33;;;;;;;4.18;2.42;;;10.80;99.90;;;;;;4996822;28;20041;-94
2024/02/08 11:11:12;;;;;;;3.05;0.80;;;10.80;99.90;;;;;;5019466;28;20033;-91
2024/02/08 11:13:45;;;;;;;2.78;0.93;;;10.80;99.90;;;;;;5027368;28;20053;-91
2024/02/08 11:16:27;;;;;;;1.35;0.80;;;10.80;99.90;;;;;;5002794;28;20613;-92
2024/02/08 11:18:54;;;;;;;2.15;0.80;;;10.90;99.90;;;;;;5016805;28;20091;-91
2024/02/08 11:21:45;;;;;;;1.30;0.98;;;10.80;99.90;;;;;;5008069;28;20022;-93
2024/02/08 11:24:38;;;;;;;8.75;1.63;;;10.80;99.90;;;;;;5020115;28;20132;-93
2024/02/08 11:27:04;;;;;;;5.95;1.20;;;10.90;99.90;;;;;;5033850;28;20039;-92
2024/02/08 11:29:45;;;;;;;2.42;1.50;;;10.90;99.90;;;;;;5018746;28;20679;-92
2024/02/08 11:32:16;;;;;;;2.10;1.20;;;10.90;99.90;;;;;;5020712;28;20581;-93
2024/02/08 11:34:46;;;;;;;1.50;0.82;;;11.00;99.90;;;;;;5019202;28;20116;-92
2024/02/08 11:37:16;;;;;;;2.72;1.17;;;11.00;99.90;;;;;;5024139;28;20022;-93
2024/02/08 11:39:46;;;;;;;2.25;0.90;;;11.10;99.90;;;;;;5024493;28;20084;-90
2024/02/08 11:42:17;;;;;;;1.40;1.02;;;11.10;99.90;;;;;;5025992;28;20029;-93
2024/02/08 11:44:46;;;;;;;4.13;1.27;;;11.10;99.90;;;;;;5031156;28;20045;-91
2024/02/08 11:47:19;;;;;;;2.35;1.13;;;11.10;99.90;;;;;;4996804;28;20048;-91
2024/02/08 11:50:01;;;;;;;1.95;1.13;;;11.10;99.90;;;;;;5018902;28;20056;-92
2024/02/08 11:52:27;;;;;;;3.03;1.30;;;11.10;99.90;;;;;;5021890;28;20087;-92
2024/02/08 11:55:00;;;;;;;3.50;1.60;;;11.10;99.90;;;;;;5022641;28;20044;-94
2024/02/08 11:57:36;;;;;;;1.92;1.15;;;11.10;99.90;;;;;;5022376;28;20889;-93
2024/02/08 12:00:15;;;;;;;4.85;1.25;;;11.10;99.90;;;;;;5031852;28;20053;-91
2024/02/08 12:02:57;;;;;;;1.63;1.00;;;11.10;99.90;;;;;;5024717;28;20047;-92
2024/02/08 12:05:30;;;;;;;2.65;1.50;;;11.20;99.90;;;;;;5016174;28;20025;-91
2024/02/08 12:08:09;;;;;;;2.97;1.08;;;11.30;99.90;;;;;;5009844;28;20025;-92
2024/02/08 12:10:35;;;;;;;2.88;1.00;;;11.50;99.90;;;;;;5008905;28;20160;-91
2024/02/08 12:13:01;;;;;;;2.38;1.67;;;11.70;99.90;;;;;;5012268;28;20048;-91
2024/02/08 12:15:28;;;;;;;4.45;2.17;;;11.80;99.90;;;;;;4998036;28;20921;-92
2024/02/08 12:18:14;;;;;;;5.97;1.88;;;11.80;99.90;;;;;;5033572;28;20029;-90
2024/02/08 12:20:43;;;;;;;2.15;1.65;;;11.80;99.90;;;;;;5008108;28;20025;-91
2024/02/08 12:23:09;;;;;;;4.30;1.33;;;11.80;99.90;;;;;;5010742;28;20059;-92
2024/02/08 12:25:35;;;;;;;5.30;1.67;;;11.80;99.90;;;;;;4987751;28;20033;-91
2024/02/08 12:28:04;;;;;;;5.82;1.55;;;11.80;99.90;;;;;;5008836;28;20029;-91
2024/02/08 12:30:36;;;;;;;4.90;1.77;;;11.80;99.90;;;;;;4986534;28;20513;-91
2024/02/08 12:33:07;;;;;;;7.95;1.98;;;11.80;99.90;;;;;;5032529;28;20044;-94
2024/02/08 12:35:40;;;;;;;2.85;1.10;;;11.80;99.90;;;;;;5012678;28;20045;-93
2024/02/08 12:38:08;;;;;;;4.47;1.60;;;11.80;99.90;;;;;;4986471;28;20034;-92
2024/02/08 12:40:35;;;;;;;5.03;1.70;;;11.80;99.90;;;;;;4996319;28;20788;-92
2024/02/08 12:43:01;;;;;;;9.85;2.55;;;11.80;99.90;;;;;;5039536;28;20036;-91
2024/02/08 12:45:31;;;;;;;6.43;1.92;;;11.80;99.90;;;;;;5029530;28;20041;-92
2024/02/08 12:47:57;;;;;;;7.35;1.40;;;11.90;99.90;;;;;;5054836;28;20033;-91
2024/02/08 12:50:25;;;;;;;3.42;1.98;;;11.90;99.90;;;;;;5020988;28;20080;-91
2024/02/08 12:52:55;;;;;;;6.30;2.10;;;12.00;99.90;;;;;;5040578;28;20050;-89
2024/02/08 12:55:29;;;;;;;6.90;1.80;;;12.00;99.90;;;;;;5047290;28;20039;-92
2024/02/08 12:58:03;;;;;;;11.52;1.45;;;12.10;99.90;;;;;;5040824;28;20013;-91
2024/02/08 13:00:33;;;;;;;7.28;1.90;;;12.20;99.90;;;;;;5040123;28;20032;-90
2024/02/08 13:03:05;;;;;;;7.45;1.60;;;12.30;99.90;;;;;;5022319;28;20112;-91
2024/02/08 13:05:45;;;;;;;8.60;2.63;;;12.40;99.90;;;;;;5044775;28;20032;-91
2024/02/08 13:08:20;;;;;;;8.10;1.63;;;12.40;99.90;;;;;;5039440;28;20026;-92
2024/02/08 13:10:56;;;;;;;10.70;2.17;;;12.40;99.90;;;;;;5037754;28;20388;-92
2024/02/08 13:13:26;;;;;;;9.02;2.00;;;12.40;99.90;;;;;;5037980;28;20036;-91
2024/02/08 13:15:58;;;;;;;11.35;2.50;;;12.40;99.90;;;;;;5037885;28;20032;-91
2024/02/08 13:18:31;;;;;;;7.75;1.90;;;12.40;99.90;;;;;;5037641;28;20460;-92
2024/02/08 13:20:57;;;;;;;8.65;2.53;;;12.40;99.90;;;;;;5022258;28;20025;-90
2024/02/08 13:23:24;;;;;;;12.45;2.75;;;12.40;99.90;;;;;;5040889;28;20043;-92
2024/02/08 13:25:54;;;;;;;10.25;2.05;;;12.30;99.90;;;;;;5021944;28;20024;-91
2024/02/08 13:28:26;;;;;;;7.38;1.88;;;12.40;99.90;;;;;;5038711;28;20116;-92
2024/02/08 13:30:57;;;;;;;10.40;2.55;;;12.30;99.90;;;;;;5038420;28;20052;-93
2024/02/08 13:33:23;;;;;;;14.68;3.45;;;12.30;99.90;;;;;;5022279;28;20041;-92
2024/02/08 13:35:52;;;;;;;15.40;3.72;;;12.40;99.90;;;;;;4999329;28;20026;-93
2024/02/08 13:38:26;;;;;;;15.85;4.38;;;12.30;99.90;;;;;;5022493;28;20034;-94
2024/02/08 13:40:58;;;;;;;17.00;3.08;;;12.30;99.90;;;;;;5034450;28;20386;-94
2024/02/08 13:43:29;;;;;;;6.95;2.13;;;12.30;99.90;;;;;;4996419;28;20836;-91
2024/02/08 13:45:57;;;;;;;21.45;4.45;;;12.20;99.90;;;;;;4991070;28;20033;-92
2024/02/08 13:48:22;;;;;;;6.55;2.67;;;12.30;99.90;;;;;;5010813;28;20025;-93
2024/02/08 13:50:50;;;;;;;16.80;2.97;;;12.30;99.90;;;;;;5010392;28;20025;-92
2024/02/08 13:53:28;;;;;;;13.88;3.17;;;12.40;99.90;;;;;;5002254;28;20041;-93
2024/02/08 13:55:54;;;;;;;13.20;2.92;;;12.40;99.90;;;;;;5030730;28;20017;-93
2024/02/08 13:58:28;;;;;;;13.07;2.70;;;12.50;99.90;;;;;;5016367;28;20558;-92
2024/02/08 14:00:54;;;;;;;10.65;2.67;;;12.50;99.90;;;;;;5009051;28;20522;-93
2024/02/08 14:03:22;;;;;;;13.85;2.72;;;12.40;99.90;;;;;;5013304;28;20080;-92
2024/02/08 14:05:51;;;;;;;9.23;2.65;;;12.50;99.90;;;;;;5023803;28;20895;-93
2024/02/08 14:08:17;;;;;;;11.13;2.42;;;12.50;99.90;;;;;;5002726;28;20119;-92
2024/02/08 14:10:44;;;;;;;8.93;2.83;;;12.40;99.90;;;;;;5004468;28;20037;-91
2024/02/08 14:13:11;;;;;;;9.50;2.15;;;12.50;99.90;;;;;;5000201;28;20411;-93
2024/02/08 14:15:47;;;;;;;15.30;2.97;;;12.60;99.90;;;;;;5000656;28;20032;-91
2024/02/08 14:18:22;;;;;;;13.48;3.92;;;12.60;99.90;;;;;;5007474;28;20033;-93
2024/02/08 14:20:52;;;;;;;22.48;3.40;;;12.50;99.90;;;;;;4995086;28;20045;-91
2024/02/08 14:23:30;;;;;;;14.15;3.40;;;12.50;99.90;;;;;;5008155;28;20034;-92
2024/02/08 14:28:46;;;;;;;11.60;3.42;;;12.50;99.90;;;;;;5025054;28;20105;-93
2024/02/08 14:31:16;;;;;;;16.98;3.75;;;12.50;99.90;;;;;;4995334;28;20029;-91
2024/02/08 14:33:42;;;;;;;12.13;2.58;;;12.50;99.90;;;;;;5020519;28;20025;-92
2024/02/08 14:36:09;;;;;;;12.52;3.35;;;12.50;99.90;;;;;;5021759;28;20021;-92
2024/02/08 14:38:44;;;;;;;12.93;3.00;;;12.60;99.90;;;;;;5018456;28;20025;-92
2024/02/08 14:44:05;;;;;;;11.70;3.55;;;12.50;99.90;;;;;;5029775;28;20039;-92
2024/02/08 14:46:34;;;;;;;18.45;3.13;;;12.50;99.90;;;;;;5018243;28;20075;-92
2024/02/08 14:49:16;;;;;;;16.15;3.60;;;12.60;99.90;;;;;;5015334;28;20033;-94
2024/02/08 14:51:48;;;;;;;17.52;3.53;;;12.60;99.90;;;;;;5012073;28;20402;-91
2024/02/08 14:54:18;;;;;;;19.05;3.55;;;12.70;99.60;;;;;;5019204;28;20030;-92
2024/02/08 14:56:45;;;;;;;14.45;3.67;;;12.70;99.90;;;;;;5012689;28;20480;-92
2024/02/08 14:59:14;;;;;;;12.20;3.17;;;12.60;99.90;;;;;;5033275;28;20113;-94
2024/02/08 15:01:42;;;;;;;12.30;2.90;;;12.60;99.90;;;;;;5006826;28;20956;-93
2024/02/08 15:04:21;;;;;;;15.23;3.78;;;12.60;99.90;;;;;;4997771;28;20656;-92
2024/02/08 15:14:55;;;;;;;8.75;3.47;;;12.60;99.70;;;;;;5001175;28;20026;-94
2024/02/08 15:17:42;;;;;;;21.00;4.45;;;12.70;99.60;;;;;;5013561;28;20032;-92
2024/02/08 15:23:09;;;;;;;19.63;4.25;;;12.70;99.90;;;;;;5035662;28;20044;-92
2024/02/08 15:25:44;;;;;;;11.38;3.35;;;12.70;99.50;;;;;;5019711;28;20056;-94
2024/02/08 15:28:26;;;;;;;13.77;3.85;;;12.70;99.90;;;;;;5006993;28;20053;-92
2024/02/08 15:30:55;;;;;;;11.25;3.80;;;12.70;99.70;;;;;;5026014;28;20037;-91
2024/02/08 15:33:31;;;;;;;15.23;2.85;;;12.70;99.90;;;;;;5026226;28;20423;-92
2024/02/08 15:35:59;;;;;;;8.90;3.33;;;12.70;99.50;;;;;;5031343;28;20033;-92
2024/02/08 15:41:09;;;;;;;12.43;3.65;;;12.70;98.20;;;;;;5021913;28;20033;-91